createdAt,value
2022-08-04T00:14:12.805Z,13
2022-08-04T00:30:48.394Z,13
2022-08-04T00:47:24.765Z,12
2022-08-04T01:04:00.310Z,12
2022-08-04T01:20:37.195Z,12
2022-08-04T01:37:13.108Z,11
2022-08-04T01:53:48.704Z,11
2022-08-04T02:10:19.906Z,11
2022-08-04T02:26:56.670Z,11
2022-08-04T02:43:51.642Z,11
2022-08-04T03:00:09.474Z,10
2022-08-04T03:16:45.505Z,12
2022-08-04T03:33:16.481Z,12
2022-08-04T03:49:52.904Z,11
2022-08-04T04:06:28.280Z,11
2022-08-04T04:23:03.085Z,11
2022-08-04T04:39:38.219Z,11
2022-08-04T04:56:13.502Z,11
2022-08-04T05:14:32.251Z,11
2022-08-04T05:29:24.963Z,12
2022-08-04T06:02:37.390Z,14
2022-08-04T06:20:00.445Z,14
2022-08-04T06:35:54.352Z,12
2022-08-04T06:52:34.401Z,14
2022-08-04T07:09:09.264Z,15
2022-08-04T07:25:59.671Z,16
2022-08-04T07:42:29.959Z,16
2022-08-04T07:59:11.237Z,18
2022-08-04T08:15:52.859Z,19
2022-08-04T08:32:34.903Z,19
2022-08-04T08:50:00.283Z,19
2022-08-04T09:06:03.133Z,21
2022-08-04T09:22:46.973Z,21
2022-08-04T09:39:31.342Z,22
2022-08-04T09:56:16.272Z,20
2022-08-04T10:13:02.468Z,21
2022-08-04T10:29:49.085Z,22
2022-08-04T10:46:29.324Z,21
2022-08-04T11:03:15.271Z,22
2022-08-04T11:36:44.442Z,19
2022-08-04T11:53:36.387Z,21
2022-08-04T12:10:12.526Z,20
2022-08-04T12:26:56.148Z,22
2022-08-04T12:43:39.027Z,22
2022-08-04T13:00:23.893Z,20
2022-08-04T13:17:04.374Z,22
2022-08-04T13:33:47.095Z,20
2022-08-04T13:50:29.789Z,20
2022-08-04T14:07:18.069Z,20
2022-08-04T14:23:48.408Z,19
2022-08-04T14:40:30.640Z,19
2022-08-04T14:57:12.837Z,19
2022-08-04T15:13:55.028Z,20
2022-08-04T15:30:37.408Z,22
2022-08-04T15:47:18.438Z,22
2022-08-04T16:04:01.691Z,19
2022-08-04T16:20:40.378Z,19
2022-08-04T16:37:21.827Z,19
2022-08-04T16:54:05.144Z,18
2022-08-04T17:10:41.480Z,13
2022-08-04T17:28:19.433Z,14
2022-08-04T17:44:01.103Z,14
2022-08-04T18:00:33.414Z,15
2022-08-04T18:33:57.100Z,17
2022-08-04T18:50:59.523Z,16
2022-08-04T19:07:29.349Z,15
2022-08-04T19:24:30.066Z,15
2022-08-04T19:40:33.692Z,14
2022-08-04T19:57:01.974Z,14
2022-08-04T20:13:39.153Z,14
2022-08-04T20:30:19.046Z,14
2022-08-04T20:46:54.543Z,13
2022-08-04T21:03:49.927Z,13
2022-08-04T21:20:12.929Z,13
2022-08-04T21:36:45.971Z,13
2022-08-04T22:10:03.042Z,14
2022-08-04T22:26:38.602Z,14
2022-08-04T22:43:33.757Z,14
2022-08-04T22:59:47.529Z,13
2022-08-04T23:16:25.461Z,13
2022-08-04T23:33:01.842Z,15
2022-08-04T23:49:40.761Z,14
